Time;durP1;ratioP1;P1;durP2;ratioP2;P2;SDS_P1;SDS_P2;PMS_P1;PMS_P2;Temp;Humidity;BMP_temperature;BMP_pressure;BME280_temperature;BME280_humidity;BME280_pressure;Samples;Min_cycle;Max_cycle;Signal;HPM_P1;HPM_P2
2023/10/11 00:02:59;;;;;;;9.98;6.78;;;;;;;;;;5158602;27;20107;-81
2023/10/11 00:05:36;;;;;;;9.52;7.00;;;;;;;;;;5141389;27;20098;-81
2023/10/11 00:08:02;;;;;;;10.82;6.80;;;;;;;;;;5141205;27;20046;-81
2023/10/11 00:10:28;;;;;;;9.10;6.63;;;;;;;;;;5158140;27;20042;-82
2023/10/11 00:12:58;;;;;;;17.58;8.25;;;;;;;;;;5158398;27;20049;-81
2023/10/11 00:15:26;;;;;;;8.35;7.22;;;;;;;;;;5124580;27;20376;-81
2023/10/11 00:17:53;;;;;;;9.02;6.72;;;;;;;;;;5141646;27;20102;-81
2023/10/11 00:20:19;;;;;;;13.23;7.95;;;;;;;;;;5158161;27;20397;-81
2023/10/11 00:22:46;;;;;;;10.93;7.68;;;;;;;;;;5140471;27;20109;-81
2023/10/11 00:25:23;;;;;;;14.57;7.53;;;;;;;;;;5157770;27;20125;-82
2023/10/11 00:27:49;;;;;;;10.65;7.75;;;;;;;;;;5157815;27;20133;-81
2023/10/11 00:30:17;;;;;;;12.27;7.90;;;;;;;;;;5158019;27;20057;-82
2023/10/11 00:32:46;;;;;;;11.05;8.30;;;;;;;;;;5158275;27;20098;-80
2023/10/11 00:35:18;;;;;;;10.57;8.32;;;;;;;;;;5157759;27;20046;-82
2023/10/11 00:37:54;;;;;;;12.73;8.20;;;;;;;;;;5157896;27;20470;-81
2023/10/11 00:40:32;;;;;;;11.05;7.55;;;;;;;;;;5140532;27;20042;-81
2023/10/11 00:42:59;;;;;;;9.30;8.30;;;;;;;;;;5140746;27;20169;-81
2023/10/11 00:45:30;;;;;;;13.93;8.73;;;;;;;;;;5140466;27;20482;-82
2023/10/11 00:47:58;;;;;;;18.15;8.77;;;;;;;;;;5157763;27;20081;-81
2023/10/11 00:50:24;;;;;;;10.32;8.63;;;;;;;;;;5157796;27;20109;-81
2023/10/11 00:52:51;;;;;;;10.75;8.18;;;;;;;;;;5156720;27;20046;-81
2023/10/11 00:55:18;;;;;;;13.50;8.85;;;;;;;;;;5157826;27;20041;-82
2023/10/11 00:57:48;;;;;;;12.15;8.45;;;;;;;;;;5140541;27;20078;-81
2023/10/11 01:00:21;;;;;;;14.52;9.27;;;;;;;;;;5158024;27;20038;-81
2023/10/11 01:02:47;;;;;;;13.63;9.13;;;;;;;;;;5140092;27;20054;-81
2023/10/11 01:05:14;;;;;;;16.02;10.10;;;;;;;;;;5157509;27;20046;-81
2023/10/11 01:07:40;;;;;;;13.45;9.75;;;;;;;;;;5157322;27;20054;-81
2023/10/11 01:10:07;;;;;;;15.02;10.48;;;;;;;;;;5123643;27;20050;-81
2023/10/11 01:12:33;;;;;;;13.45;9.65;;;;;;;;;;5175880;27;20126;-81
2023/10/11 01:14:59;;;;;;;14.95;9.48;;;;;;;;;;5123368;27;20050;-82
2023/10/11 01:17:32;;;;;;;11.88;10.00;;;;;;;;;;5157639;27;20073;-81
2023/10/11 01:20:01;;;;;;;16.30;10.02;;;;;;;;;;5140637;27;20042;-81
2023/10/11 01:22:30;;;;;;;15.60;9.95;;;;;;;;;;5139571;27;20068;-82
2023/10/11 01:24:58;;;;;;;14.90;9.57;;;;;;;;;;5123590;27;20046;-81
2023/10/11 01:27:30;;;;;;;13.95;9.40;;;;;;;;;;5157771;27;20435;-81
2023/10/11 01:29:59;;;;;;;15.52;9.60;;;;;;;;;;5140743;27;20054;-81
2023/10/11 01:32:25;;;;;;;14.50;9.95;;;;;;;;;;5140785;27;20126;-81
2023/10/11 01:34:51;;;;;;;11.75;9.82;;;;;;;;;;5157498;27;20038;-81
2023/10/11 01:37:18;;;;;;;13.13;10.35;;;;;;;;;;5175676;27;20053;-81
2023/10/11 01:39:44;;;;;;;16.48;10.50;;;;;;;;;;5159816;27;20058;-81
2023/10/11 01:42:10;;;;;;;13.60;10.15;;;;;;;;;;5161061;27;20055;-81
2023/10/11 01:44:38;;;;;;;14.20;10.63;;;;;;;;;;5143958;27;20046;-81
2023/10/11 01:47:05;;;;;;;15.55;10.07;;;;;;;;;;5144205;27;20042;-81
2023/10/11 01:49:39;;;;;;;16.90;10.23;;;;;;;;;;5161391;27;20061;-81
2023/10/11 01:52:06;;;;;;;15.70;10.03;;;;;;;;;;5179059;27;20061;-81
2023/10/11 01:54:34;;;;;;;15.77;10.50;;;;;;;;;;5161891;27;20050;-81
2023/10/11 01:57:01;;;;;;;12.60;9.82;;;;;;;;;;5161091;27;20099;-81
2023/10/11 01:59:27;;;;;;;15.05;9.77;;;;;;;;;;5160798;27;20046;-81
2023/10/11 02:02:03;;;;;;;12.02;9.65;;;;;;;;;;5126367;27;20049;-81
2023/10/11 02:04:29;;;;;;;12.20;9.65;;;;;;;;;;5143807;27;20193;-81
2023/10/11 02:06:57;;;;;;;15.60;10.43;;;;;;;;;;5160784;27;20092;-81
2023/10/11 02:09:23;;;;;;;15.38;10.43;;;;;;;;;;5143700;27;20054;-81
2023/10/11 02:11:52;;;;;;;14.30;10.45;;;;;;;;;;5179215;27;20049;-81
2023/10/11 02:14:22;;;;;;;15.82;11.40;;;;;;;;;;5144011;27;20042;-81
2023/10/11 02:16:48;;;;;;;18.15;10.98;;;;;;;;;;5160693;27;20045;-82
2023/10/11 02:19:15;;;;;;;17.35;11.23;;;;;;;;;;5160373;27;20042;-81
2023/10/11 02:21:45;;;;;;;14.82;10.65;;;;;;;;;;5142643;27;20150;-81
2023/10/11 02:24:14;;;;;;;17.50;10.45;;;;;;;;;;5160410;27;20100;-81
2023/10/11 02:26:41;;;;;;;17.33;11.20;;;;;;;;;;5160547;27;20042;-81
2023/10/11 02:29:15;;;;;;;15.00;11.30;;;;;;;;;;5160508;27;20508;-81
2023/10/11 02:31:41;;;;;;;15.10;10.65;;;;;;;;;;5160009;27;20046;-81
2023/10/11 02:34:12;;;;;;;18.23;11.10;;;;;;;;;;5143046;27;20038;-80
2023/10/11 02:36:42;;;;;;;20.95;11.00;;;;;;;;;;5161198;27;20050;-80
2023/10/11 02:39:17;;;;;;;18.48;12.25;;;;;;;;;;5178663;27;20125;-81
2023/10/11 02:41:45;;;;;;;17.10;12.10;;;;;;;;;;5159603;27;20054;-82
2023/10/11 02:44:12;;;;;;;22.23;12.38;;;;;;;;;;5142482;27;20050;-81
2023/10/11 02:46:42;;;;;;;17.10;11.75;;;;;;;;;;5160043;27;20129;-81
2023/10/11 02:49:18;;;;;;;20.45;11.70;;;;;;;;;;5178366;27;20125;-80
2023/10/11 02:51:52;;;;;;;15.25;11.85;;;;;;;;;;5143818;27;20061;-81
2023/10/11 02:54:19;;;;;;;17.10;10.88;;;;;;;;;;5143085;27;20061;-81
2023/10/11 02:56:48;;;;;;;16.83;12.15;;;;;;;;;;5142312;27;20578;-81
2023/10/11 02:59:22;;;;;;;15.98;11.35;;;;;;;;;;5158711;27;20076;-81
2023/10/11 03:02:00;;;;;;;;;;;;;;;;;;5158889;27;20049;-81
2023/10/11 03:04:32;;;;;;;19.63;11.05;;;;;;;;;;5142271;27;19918;-81
2023/10/11 03:07:00;;;;;;;14.27;10.93;;;;;;;;;;5159655;27;20042;-80
2023/10/11 03:09:29;;;;;;;15.68;11.18;;;;;;;;;;5159509;27;20053;-81
2023/10/11 03:12:05;;;;;;;14.43;10.73;;;;;;;;;;5142301;27;20038;-80
2023/10/11 03:14:41;;;;;;;14.13;11.20;;;;;;;;;;5142349;27;20053;-82
2023/10/11 03:17:13;;;;;;;15.82;11.55;;;;;;;;;;5143750;27;20042;-80
2023/10/11 03:19:42;;;;;;;15.45;11.25;;;;;;;;;;5159548;27;20054;-80
2023/10/11 03:22:09;;;;;;;16.20;11.38;;;;;;;;;;5124895;27;20513;-80
2023/10/11 03:24:40;;;;;;;19.85;11.05;;;;;;;;;;5142476;27;20049;-80
2023/10/11 03:27:10;;;;;;;14.05;10.23;;;;;;;;;;5159091;27;20049;-81
2023/10/11 03:29:36;;;;;;;16.75;11.18;;;;;;;;;;5177686;27;20053;-80
2023/10/11 03:32:06;;;;;;;16.40;10.82;;;;;;;;;;5158789;27;20042;-80
2023/10/11 03:34:32;;;;;;;20.08;11.07;;;;;;;;;;5177624;27;20491;-81
2023/10/11 03:37:00;;;;;;;16.70;10.85;;;;;;;;;;5158974;27;20092;-81
2023/10/11 03:42:07;;;;;;;15.32;10.95;;;;;;;;;;5158475;27;20079;-80
2023/10/11 03:44:39;;;;;;;18.95;10.98;;;;;;;;;;5159210;27;20053;-81
2023/10/11 03:47:08;;;;;;;17.92;10.80;;;;;;;;;;5141420;27;20505;-80
2023/10/11 03:52:22;;;;;;;13.45;11.23;;;;;;;;;;5141909;27;20050;-80
2023/10/11 03:55:10;;;;;;;14.90;11.10;;;;;;;;;;5158863;27;20398;-81
2023/10/11 03:57:41;;;;;;;15.77;11.32;;;;;;;;;;5158712;27;20042;-80
2023/10/11 04:00:24;;;;;;;14.40;10.93;;;;;;;;;;5158656;27;20034;-80
2023/10/11 04:02:58;;;;;;;16.30;11.48;;;;;;;;;;5158743;27;20485;-80
2023/10/11 04:05:28;;;;;;;15.10;10.93;;;;;;;;;;5158414;27;20138;-80
2023/10/11 04:07:55;;;;;;;14.60;10.85;;;;;;;;;;5158572;27;20043;-80
2023/10/11 04:10:38;;;;;;;17.38;11.15;;;;;;;;;;5176905;27;20106;-80
2023/10/11 04:13:08;;;;;;;16.98;10.20;;;;;;;;;;5141193;27;20046;-79
2023/10/11 04:15:35;;;;;;;15.00;9.98;;;;;;;;;;5141464;27;20389;-80
2023/10/11 04:18:14;;;;;;;18.27;10.40;;;;;;;;;;5176499;27;20486;-79
2023/10/11 04:20:50;;;;;;;15.32;9.88;;;;;;;;;;5157684;27;20063;-81
2023/10/11 04:23:16;;;;;;;14.43;9.85;;;;;;;;;;5141094;27;20050;-80
2023/10/11 04:25:44;;;;;;;16.88;11.18;;;;;;;;;;5140219;27;20042;-80
2023/10/11 04:28:13;;;;;;;15.82;10.65;;;;;;;;;;5176445;27;20489;-80
2023/10/11 04:30:46;;;;;;;14.57;10.88;;;;;;;;;;5158012;27;20094;-80
2023/10/11 04:33:21;;;;;;;17.90;11.70;;;;;;;;;;5158178;27;20050;-79
2023/10/11 04:35:57;;;;;;;17.60;10.90;;;;;;;;;;5158462;27;20046;-79
2023/10/11 04:38:24;;;;;;;13.88;10.27;;;;;;;;;;5140766;27;20038;-79
2023/10/11 04:40:52;;;;;;;19.75;10.88;;;;;;;;;;5157602;27;20069;-80
2023/10/11 04:43:25;;;;;;;16.02;10.07;;;;;;;;;;5176415;27;20478;-79
2023/10/11 04:45:59;;;;;;;14.75;10.77;;;;;;;;;;5176593;27;20090;-79
2023/10/11 04:48:29;;;;;;;15.35;10.63;;;;;;;;;;5157934;27;20117;-79
2023/10/11 04:51:04;;;;;;;13.15;11.45;;;;;;;;;;5176452;27;20078;-79
2023/10/11 04:53:34;;;;;;;15.95;10.73;;;;;;;;;;5157487;27;20079;-80
2023/10/11 04:56:09;;;;;;;18.13;11.18;;;;;;;;;;5140137;27;20046;-80
2023/10/11 04:58:54;;;;;;;14.68;11.75;;;;;;;;;;5159215;27;20102;-79
2023/10/11 05:01:24;;;;;;;;;;;;;;;;;;5158320;27;20501;-79
2023/10/11 05:03:59;;;;;;;18.88;11.38;;;;;;;;;;5140573;27;20389;-79
2023/10/11 05:06:31;;;;;;;14.05;11.85;;;;;;;;;;5124862;27;20440;-79
2023/10/11 05:09:38;;;;;;;17.27;12.30;;;;;;;;;;5175972;27;20042;-79
2023/10/11 05:11:50;;;;;;;13.95;11.63;;;;;;;;;;5153125;27;20058;-79
2023/10/11 05:14:29;;;;;;;15.73;11.65;;;;;;;;;;5161378;27;20123;-79
2023/10/11 05:17:16;;;;;;;19.20;12.63;;;;;;;;;;5161955;27;20057;-79
2023/10/11 05:19:47;;;;;;;18.55;12.93;;;;;;;;;;5161340;27;20069;-79
2023/10/11 05:22:17;;;;;;;17.15;13.23;;;;;;;;;;5160079;27;20042;-79
2023/10/11 05:24:54;;;;;;;18.35;13.10;;;;;;;;;;5159167;27;20508;-79
2023/10/11 05:32:58;;;;;;;17.63;14.02;;;;;;;;;;5161709;27;20402;-79
2023/10/11 05:51:42;;;;;;;21.90;15.48;;;;;;;;;;5159812;27;20048;-80
2023/10/11 05:54:08;;;;;;;22.17;15.23;;;;;;;;;;5161189;27;20042;-79
2023/10/11 05:56:38;;;;;;;22.05;15.13;;;;;;;;;;5180088;27;20049;-79
2023/10/11 05:59:05;;;;;;;21.73;15.20;;;;;;;;;;5160820;27;20042;-79
2023/10/11 06:01:34;;;;;;;21.63;15.40;;;;;;;;;;5160475;27;20606;-79
2023/10/11 06:04:03;;;;;;;21.60;16.13;;;;;;;;;;5160856;27;20050;-79
2023/10/11 06:06:41;;;;;;;22.10;15.73;;;;;;;;;;5160789;27;20046;-79
2023/10/11 06:09:17;;;;;;;25.20;16.52;;;;;;;;;;5161290;27;20482;-80
2023/10/11 06:11:47;;;;;;;24.33;16.17;;;;;;;;;;5161245;27;20051;-79
2023/10/11 06:14:17;;;;;;;26.42;15.93;;;;;;;;;;5160602;27;20049;-79
2023/10/11 06:16:49;;;;;;;25.63;16.58;;;;;;;;;;5143283;27;20493;-79
2023/10/11 06:19:16;;;;;;;22.17;15.95;;;;;;;;;;5179121;27;20046;-79
2023/10/11 06:21:58;;;;;;;20.95;16.63;;;;;;;;;;5142213;27;20386;-79
2023/10/11 06:24:34;;;;;;;19.95;16.00;;;;;;;;;;5139005;27;20043;-80
2023/10/11 06:29:37;;;;;;;23.27;16.17;;;;;;;;;;5139986;27;20054;-80
2023/10/11 06:32:11;;;;;;;25.35;16.75;;;;;;;;;;5122966;27;20500;-80
2023/10/11 06:34:37;;;;;;;24.77;16.77;;;;;;;;;;5140170;27;20051;-80
2023/10/11 06:37:06;;;;;;;22.50;16.98;;;;;;;;;;5122618;27;20386;-80
2023/10/11 06:42:31;;;;;;;23.92;17.40;;;;;;;;;;5139086;27;20054;-80
2023/10/11 06:44:59;;;;;;;25.63;18.05;;;;;;;;;;5139435;27;20099;-80
2023/10/11 06:47:36;;;;;;;25.88;17.13;;;;;;;;;;5139081;27;20051;-79
2023/10/11 06:50:10;;;;;;;25.65;17.15;;;;;;;;;;5157646;27;20462;-80
2023/10/11 06:52:42;;;;;;;24.88;19.13;;;;;;;;;;5138581;27;20129;-80
2023/10/11 06:57:41;;;;;;;21.75;17.38;;;;;;;;;;5139051;27;20064;-81
2023/10/11 07:00:21;;;;;;;25.20;18.80;;;;;;;;;;5139456;27;20054;-80
2023/10/11 07:03:21;;;;;;;25.75;18.42;;;;;;;;;;5140063;27;20368;-81
2023/10/11 07:05:56;;;;;;;25.50;18.65;;;;;;;;;;5159517;27;20600;-81
2023/10/11 07:08:31;;;;;;;24.50;18.40;;;;;;;;;;5142505;27;20439;-80
2023/10/11 07:13:54;;;;;;;29.17;18.55;;;;;;;;;;5141107;27;20046;-80
2023/10/11 07:16:20;;;;;;;26.35;19.52;;;;;;;;;;5157470;27;20046;-80
2023/10/11 07:18:47;;;;;;;25.25;19.48;;;;;;;;;;5159493;27;20042;-81
2023/10/11 07:21:16;;;;;;;24.48;19.77;;;;;;;;;;5177817;27;20042;-81
2023/10/11 07:24:19;;;;;;;28.90;19.15;;;;;;;;;;5159025;27;20382;-80
2023/10/11 07:29:02;;;;;;;28.77;19.23;;;;;;;;;;5141383;27;20474;-81
2023/10/11 07:31:32;;;;;;;32.13;21.10;;;;;;;;;;5159141;27;20038;-80
2023/10/11 07:34:09;;;;;;;31.55;20.52;;;;;;;;;;5159073;27;20051;-80
2023/10/11 07:36:37;;;;;;;34.78;20.75;;;;;;;;;;5159502;27;20049;-80
2023/10/11 07:39:14;;;;;;;29.17;20.77;;;;;;;;;;5177907;27;20046;-79
2023/10/11 07:41:42;;;;;;;29.13;19.65;;;;;;;;;;5155146;27;20137;-80
2023/10/11 07:44:09;;;;;;;30.80;21.83;;;;;;;;;;5155456;27;20166;-80
2023/10/11 07:46:37;;;;;;;35.90;21.02;;;;;;;;;;5155496;27;20502;-80
2023/10/11 07:49:04;;;;;;;33.88;22.15;;;;;;;;;;5138529;27;20050;-80
2023/10/11 07:51:41;;;;;;;28.70;22.45;;;;;;;;;;5138358;27;20114;-80
2023/10/11 07:54:07;;;;;;;32.45;24.17;;;;;;;;;;5155579;27;20103;-80
2023/10/11 07:56:37;;;;;;;32.90;23.85;;;;;;;;;;5121029;27;20054;-80
2023/10/11 07:59:09;;;;;;;33.70;24.17;;;;;;;;;;5155363;27;20042;-80
2023/10/11 08:01:45;;;;;;;34.90;24.48;;;;;;;;;;5155015;27;20039;-80
2023/10/11 08:04:12;;;;;;;37.08;24.45;;;;;;;;;;5140038;27;20102;-80
2023/10/11 08:06:41;;;;;;;36.67;26.30;;;;;;;;;;5155153;27;20047;-80
2023/10/11 08:09:09;;;;;;;37.50;25.75;;;;;;;;;;5155729;27;20543;-80
2023/10/11 08:14:32;;;;;;;40.22;28.13;;;;;;;;;;5141332;27;20420;-80
2023/10/11 08:17:10;;;;;;;35.63;27.88;;;;;;;;;;5155927;27;20086;-80
2023/10/11 08:19:36;;;;;;;37.95;26.48;;;;;;;;;;5138099;27;20046;-80
2023/10/11 08:22:09;;;;;;;42.08;28.95;;;;;;;;;;5137673;27;20053;-81
2023/10/11 08:24:46;;;;;;;39.08;28.52;;;;;;;;;;5154937;27;20050;-80
2023/10/11 08:27:22;;;;;;;39.83;27.17;;;;;;;;;;5137526;27;20097;-80
2023/10/11 08:29:53;;;;;;;41.75;28.05;;;;;;;;;;5154999;27;20046;-81
2023/10/11 08:32:19;;;;;;;43.53;29.95;;;;;;;;;;5155322;27;20056;-80
2023/10/11 08:34:46;;;;;;;43.03;28.85;;;;;;;;;;5155752;27;20391;-80
2023/10/11 08:37:12;;;;;;;46.00;29.85;;;;;;;;;;5154470;27;20050;-79
2023/10/11 08:39:47;;;;;;;43.17;30.27;;;;;;;;;;5120325;27;20042;-80
2023/10/11 08:42:16;;;;;;;46.08;30.38;;;;;;;;;;5118780;27;20075;-80
2023/10/11 08:44:46;;;;;;;44.70;30.55;;;;;;;;;;5155522;27;20490;-80
2023/10/11 08:47:16;;;;;;;45.25;30.20;;;;;;;;;;5155072;27;20050;-80
2023/10/11 08:49:48;;;;;;;44.40;30.50;;;;;;;;;;5137870;27;20466;-79
2023/10/11 08:52:19;;;;;;;44.10;30.90;;;;;;;;;;5120617;27;20057;-80
2023/10/11 08:54:45;;;;;;;41.95;28.88;;;;;;;;;;5154431;27;20051;-80
2023/10/11 08:57:13;;;;;;;45.30;30.60;;;;;;;;;;5155360;27;20049;-80
2023/10/11 08:59:49;;;;;;;43.92;31.08;;;;;;;;;;5137105;27;20122;-80
2023/10/11 09:02:17;;;;;;;47.25;30.88;;;;;;;;;;5154015;27;20043;-80
2023/10/11 09:05:06;;;;;;;44.35;29.60;;;;;;;;;;5154340;27;20046;-80
2023/10/11 09:07:37;;;;;;;43.80;32.00;;;;;;;;;;5154348;27;20051;-80
2023/10/11 09:10:26;;;;;;;49.33;31.98;;;;;;;;;;5137010;27;20043;-80
2023/10/11 09:12:59;;;;;;;50.25;33.83;;;;;;;;;;5155225;27;20058;-79
2023/10/11 09:15:42;;;;;;;46.65;33.75;;;;;;;;;;5138069;27;20116;-80
2023/10/11 09:18:12;;;;;;;52.22;33.92;;;;;;;;;;5154418;27;20047;-80
2023/10/11 09:20:42;;;;;;;54.05;35.55;;;;;;;;;;5154410;27;20502;-80
2023/10/11 09:23:11;;;;;;;51.13;34.42;;;;;;;;;;5153272;27;20498;-80
2023/10/11 09:25:57;;;;;;;50.15;35.00;;;;;;;;;;5154095;27;20046;-81
2023/10/11 09:28:27;;;;;;;52.88;35.38;;;;;;;;;;5154414;27;20050;-80
2023/10/11 09:31:13;;;;;;;48.05;34.20;;;;;;;;;;5154418;27;20050;-79
2023/10/11 09:33:40;;;;;;;54.28;36.17;;;;;;;;;;5137727;27;20452;-80
2023/10/11 09:36:12;;;;;;;57.88;34.88;;;;;;;;;;5154093;27;20042;-79
2023/10/11 09:38:41;;;;;;;58.40;35.70;;;;;;;;;;5137344;27;20051;-80
2023/10/11 09:41:08;;;;;;;48.05;35.42;;;;;;;;;;5153600;27;20410;-80
2023/10/11 09:43:44;;;;;;;51.33;33.30;;;;;;;;;;5154106;27;20043;-80
2023/10/11 09:46:11;;;;;;;51.30;34.75;;;;;;;;;;5155550;27;20065;-80
2023/10/11 09:48:41;;;;;;;46.60;33.92;;;;;;;;;;5136394;27;20043;-79
2023/10/11 09:51:17;;;;;;;53.45;35.53;;;;;;;;;;5153930;27;20050;-80
2023/10/11 09:53:49;;;;;;;56.72;35.20;;;;;;;;;;5137566;27;20129;-80
2023/10/11 09:56:22;;;;;;;48.05;35.05;;;;;;;;;;5153936;27;20130;-80
2023/10/11 09:59:11;;;;;;;53.95;35.45;;;;;;;;;;5153871;27;20051;-80
2023/10/11 10:01:41;;;;;;;54.22;34.90;;;;;;;;;;5150130;27;20054;-80
2023/10/11 10:04:09;;;;;;;49.97;34.95;;;;;;;;;;5157582;27;20049;-80
2023/10/11 10:06:35;;;;;;;56.95;39.05;;;;;;;;;;5157282;27;20050;-79
2023/10/11 10:09:26;;;;;;;53.97;34.90;;;;;;;;;;5158507;27;20051;-79
2023/10/11 10:12:05;;;;;;;57.28;35.28;;;;;;;;;;5156844;27;20046;-79
2023/10/11 10:14:36;;;;;;;50.00;34.20;;;;;;;;;;5157353;27;20053;-80
2023/10/11 10:17:13;;;;;;;57.35;35.72;;;;;;;;;;5157094;27;20394;-80
2023/10/11 10:19:39;;;;;;;52.72;36.35;;;;;;;;;;5157402;27;20105;-80
2023/10/11 10:22:27;;;;;;;47.22;35.22;;;;;;;;;;5157721;27;20068;-80
2023/10/11 10:24:57;;;;;;;52.35;36.83;;;;;;;;;;5140578;27;20390;-80
2023/10/11 10:27:35;;;;;;;55.08;35.72;;;;;;;;;;5156896;27;20444;-80
2023/10/11 10:30:04;;;;;;;54.03;34.92;;;;;;;;;;5139883;27;20042;-80
2023/10/11 10:32:30;;;;;;;56.03;37.35;;;;;;;;;;5156702;27;20167;-80
2023/10/11 10:35:18;;;;;;;56.22;36.95;;;;;;;;;;5156964;27;20047;-79
2023/10/11 10:37:57;;;;;;;46.60;31.48;;;;;;;;;;5157089;27;20487;-79
2023/10/11 10:40:27;;;;;;;48.22;31.60;;;;;;;;;;5157453;27;20567;-80
2023/10/11 10:43:19;;;;;;;36.75;27.48;;;;;;;;;;5140158;27;20050;-80
2023/10/11 10:45:49;;;;;;;44.53;26.58;;;;;;;;;;5157835;27;20367;-80
2023/10/11 10:48:24;;;;;;;41.22;25.95;;;;;;;;;;5139404;27;20050;-80
2023/10/11 10:50:50;;;;;;;39.08;23.10;;;;;;;;;;5156472;27;20443;-81
2023/10/11 10:53:17;;;;;;;33.38;22.42;;;;;;;;;;5139336;27;20047;-80
2023/10/11 10:55:44;;;;;;;32.28;22.45;;;;;;;;;;5156633;27;20121;-80
2023/10/11 10:58:20;;;;;;;32.72;21.65;;;;;;;;;;5139346;27;20054;-80
2023/10/11 11:00:52;;;;;;;40.13;23.50;;;;;;;;;;5157210;27;20046;-81
2023/10/11 11:03:22;;;;;;;36.72;22.73;;;;;;;;;;5156467;27;20086;-81
2023/10/11 11:05:55;;;;;;;32.58;22.25;;;;;;;;;;5156365;27;20444;-81
2023/10/11 11:08:27;;;;;;;32.17;21.05;;;;;;;;;;5156002;27;20050;-81
2023/10/11 11:11:19;;;;;;;33.17;21.75;;;;;;;;;;5155923;27;20093;-81
2023/10/11 11:13:51;;;;;;;28.90;19.70;;;;;;;;;;5156281;27;20081;-82
2023/10/11 11:16:17;;;;;;;25.00;18.70;;;;;;;;;;5156867;27;20494;-80
2023/10/11 11:18:43;;;;;;;26.27;18.98;;;;;;;;;;5138900;27;20050;-80
2023/10/11 11:21:29;;;;;;;23.77;18.80;;;;;;;;;;5138590;27;20053;-80
2023/10/11 11:23:55;;;;;;;27.88;18.55;;;;;;;;;;5155842;27;20050;-80
2023/10/11 11:26:31;;;;;;;29.55;17.27;;;;;;;;;;5156977;27;20043;-80
2023/10/11 11:29:14;;;;;;;26.00;15.63;;;;;;;;;;5156988;27;20099;-80
2023/10/11 11:31:52;;;;;;;20.42;14.52;;;;;;;;;;5155950;27;20134;-80
2023/10/11 11:34:38;;;;;;;22.02;12.85;;;;;;;;;;5155495;27;20089;-81
2023/10/11 11:37:06;;;;;;;19.95;11.57;;;;;;;;;;5155911;27;20054;-81
2023/10/11 11:39:42;;;;;;;22.08;12.40;;;;;;;;;;5155709;27;20518;-81
2023/10/11 11:42:18;;;;;;;16.20;11.30;;;;;;;;;;5155002;27;20094;-81
2023/10/11 11:44:46;;;;;;;21.10;13.27;;;;;;;;;;5155332;27;20046;-81
2023/10/11 11:47:20;;;;;;;19.05;14.32;;;;;;;;;;5155201;27;20095;-81
2023/10/11 11:49:47;;;;;;;22.25;14.30;;;;;;;;;;5155182;27;20047;-81
2023/10/11 11:52:16;;;;;;;23.92;14.82;;;;;;;;;;5154874;27;20462;-81
2023/10/11 11:54:47;;;;;;;18.50;13.40;;;;;;;;;;5138759;27;20441;-80
2023/10/11 11:57:13;;;;;;;23.85;13.48;;;;;;;;;;5155715;27;20069;-82
2023/10/11 11:59:41;;;;;;;21.98;12.05;;;;;;;;;;5156626;27;20057;-80
2023/10/11 12:02:16;;;;;;;18.20;12.60;;;;;;;;;;5155033;27;20042;-80
2023/10/11 12:04:44;;;;;;;22.05;12.55;;;;;;;;;;5155032;27;20095;-81
2023/10/11 12:07:11;;;;;;;18.20;10.38;;;;;;;;;;5154924;27;20071;-81
2023/10/11 12:09:38;;;;;;;14.15;8.35;;;;;;;;;;5155359;27;20051;-82
2023/10/11 12:12:07;;;;;;;18.60;8.95;;;;;;;;;;5143232;27;20395;-83
2023/10/11 12:14:37;;;;;;;14.98;10.07;;;;;;;;;;5144191;27;20043;-80
2023/10/11 12:17:10;;;;;;;16.92;11.00;;;;;;;;;;5152516;27;20039;-80
2023/10/11 12:19:36;;;;;;;23.45;12.20;;;;;;;;;;5151647;27;20605;-80
2023/10/11 12:22:03;;;;;;;15.07;11.98;;;;;;;;;;5146769;27;20035;-81
2023/10/11 12:24:30;;;;;;;22.08;14.65;;;;;;;;;;5154335;27;20082;-82
2023/10/11 12:26:59;;;;;;;21.77;13.02;;;;;;;;;;5137517;27;20446;-81
2023/10/11 12:29:26;;;;;;;22.85;13.60;;;;;;;;;;5154683;27;20393;-81
2023/10/11 12:31:54;;;;;;;19.50;13.20;;;;;;;;;;5154856;27;20057;-81
2023/10/11 12:34:24;;;;;;;23.48;14.43;;;;;;;;;;5154577;27;20054;-82
2023/10/11 12:36:54;;;;;;;18.85;13.50;;;;;;;;;;5152708;27;20094;-81
2023/10/11 12:39:20;;;;;;;20.88;14.10;;;;;;;;;;5154180;27;20097;-81
2023/10/11 12:41:51;;;;;;;19.60;13.55;;;;;;;;;;5133363;27;20051;-81
2023/10/11 12:44:18;;;;;;;18.90;13.02;;;;;;;;;;5116744;27;20403;-81
2023/10/11 12:46:49;;;;;;;20.17;13.15;;;;;;;;;;5116757;28;20058;-81
2023/10/11 12:49:15;;;;;;;21.67;11.98;;;;;;;;;;5134441;27;20047;-80
2023/10/11 12:51:42;;;;;;;20.42;12.98;;;;;;;;;;5133661;27;20045;-81
2023/10/11 12:54:10;;;;;;;21.98;13.02;;;;;;;;;;5146182;27;20452;-81
2023/10/11 12:56:37;;;;;;;24.83;14.13;;;;;;;;;;5154669;27;20049;-81
2023/10/11 12:59:06;;;;;;;20.58;12.10;;;;;;;;;;5154152;27;20431;-81
2023/10/11 13:01:42;;;;;;;25.60;13.60;;;;;;;;;;5153951;27;20436;-81
2023/10/11 13:04:17;;;;;;;17.85;11.43;;;;;;;;;;5139506;27;20050;-80
2023/10/11 13:06:49;;;;;;;17.63;11.15;;;;;;;;;;5137871;27;20047;-81
2023/10/11 13:09:16;;;;;;;15.75;10.70;;;;;;;;;;5120615;27;20059;-81
2023/10/11 13:11:46;;;;;;;15.70;10.38;;;;;;;;;;5137244;27;20175;-80
2023/10/11 13:14:18;;;;;;;14.25;9.50;;;;;;;;;;5154116;27;20099;-80
2023/10/11 13:16:45;;;;;;;15.10;10.20;;;;;;;;;;5138274;27;20042;-80
2023/10/11 13:19:20;;;;;;;13.15;9.32;;;;;;;;;;5155270;27;20126;-79
2023/10/11 13:21:50;;;;;;;14.15;8.93;;;;;;;;;;5153976;27;20050;-80
2023/10/11 13:24:21;;;;;;;15.23;9.52;;;;;;;;;;5153866;27;20397;-79
2023/10/11 13:26:48;;;;;;;13.43;8.70;;;;;;;;;;5154530;27;20051;-79
2023/10/11 13:29:17;;;;;;;16.52;9.57;;;;;;;;;;5154168;27;20104;-79
2023/10/11 13:31:44;;;;;;;14.75;10.13;;;;;;;;;;5154386;27;20137;-79
2023/10/11 13:34:10;;;;;;;18.77;9.88;;;;;;;;;;5155929;27;20046;-79
2023/10/11 13:36:39;;;;;;;16.65;9.77;;;;;;;;;;5157973;27;20039;-79
2023/10/11 13:39:14;;;;;;;16.75;10.07;;;;;;;;;;5158098;27;20055;-79
2023/10/11 13:41:42;;;;;;;15.63;10.07;;;;;;;;;;5142037;27;20070;-79
2023/10/11 13:44:10;;;;;;;14.48;9.63;;;;;;;;;;5157866;27;20086;-79
2023/10/11 13:46:36;;;;;;;22.63;10.32;;;;;;;;;;5140867;27;20042;-79
2023/10/11 13:49:20;;;;;;;16.80;9.38;;;;;;;;;;5140595;27;20504;-79
2023/10/11 13:51:47;;;;;;;13.30;9.10;;;;;;;;;;5158088;27;20129;-79
2023/10/11 13:54:18;;;;;;;15.77;9.73;;;;;;;;;;5157044;27;20050;-79
2023/10/11 13:56:44;;;;;;;23.65;11.50;;;;;;;;;;5157804;27;20051;-79
2023/10/11 13:59:11;;;;;;;15.27;10.32;;;;;;;;;;5157777;27;20078;-79
2023/10/11 14:07:37;;;;;;;15.70;10.57;;;;;;;;;;5098329;28;20051;-79
2023/10/11 14:10:15;;;;;;;18.40;10.63;;;;;;;;;;5149694;27;20058;-80
2023/10/11 14:12:42;;;;;;;18.73;10.70;;;;;;;;;;5157460;27;20483;-79
2023/10/11 14:15:11;;;;;;;16.33;10.63;;;;;;;;;;5157213;27;20049;-79
2023/10/11 14:17:38;;;;;;;18.98;10.98;;;;;;;;;;5157260;27;20119;-80
2023/10/11 14:20:19;;;;;;;17.08;11.05;;;;;;;;;;5158569;27;20058;-80
2023/10/11 14:22:46;;;;;;;17.25;10.68;;;;;;;;;;5139609;27;20046;-80
2023/10/11 14:25:13;;;;;;;17.08;10.95;;;;;;;;;;5140084;27;20038;-80
2023/10/11 14:27:39;;;;;;;15.80;10.68;;;;;;;;;;5156665;27;20402;-81
2023/10/11 14:30:12;;;;;;;17.77;10.73;;;;;;;;;;5156974;27;20057;-80
2023/10/11 14:32:38;;;;;;;17.58;10.80;;;;;;;;;;5158128;27;20056;-79
2023/10/11 14:35:08;;;;;;;17.17;10.60;;;;;;;;;;5157976;27;20372;-79
2023/10/11 14:37:41;;;;;;;15.63;9.98;;;;;;;;;;5157133;27;20065;-79
2023/10/11 14:40:16;;;;;;;16.70;10.77;;;;;;;;;;5139751;27;20085;-79
2023/10/11 14:42:43;;;;;;;17.52;10.82;;;;;;;;;;5156327;27;20054;-80
2023/10/11 14:45:11;;;;;;;15.80;10.20;;;;;;;;;;5155901;27;20050;-79
2023/10/11 14:47:45;;;;;;;14.57;9.80;;;;;;;;;;5157000;27;20055;-79
2023/10/11 14:50:14;;;;;;;18.70;10.25;;;;;;;;;;5157724;27;20053;-79
2023/10/11 14:52:40;;;;;;;15.00;9.90;;;;;;;;;;5156186;27;20051;-79
2023/10/11 14:55:08;;;;;;;16.58;9.73;;;;;;;;;;5156618;27;20043;-79
2023/10/11 14:57:34;;;;;;;13.30;8.63;;;;;;;;;;5156449;27;20082;-79
2023/10/11 15:00:00;;;;;;;16.55;8.48;;;;;;;;;;5156836;27;20043;-79
2023/10/11 15:02:27;;;;;;;14.90;8.63;;;;;;;;;;5157319;27;20050;-79
2023/10/11 15:04:56;;;;;;;17.35;9.13;;;;;;;;;;5156465;27;20098;-79
2023/10/11 15:07:23;;;;;;;16.05;8.93;;;;;;;;;;5156374;27;20470;-79
2023/10/11 15:09:49;;;;;;;14.55;8.80;;;;;;;;;;5156321;27;20054;-80
2023/10/11 15:12:15;;;;;;;14.70;8.13;;;;;;;;;;5122247;27;20047;-79
2023/10/11 15:14:42;;;;;;;15.88;8.45;;;;;;;;;;5156063;27;20078;-79
2023/10/11 15:17:11;;;;;;;18.10;8.95;;;;;;;;;;5156008;27;20083;-79
2023/10/11 15:19:37;;;;;;;14.93;8.60;;;;;;;;;;5156150;27;20046;-79
2023/10/11 15:22:04;;;;;;;10.73;7.95;;;;;;;;;;5155756;27;20043;-79
2023/10/11 15:24:30;;;;;;;16.20;9.18;;;;;;;;;;5138340;27;20099;-79
2023/10/11 15:26:56;;;;;;;18.70;9.50;;;;;;;;;;5138705;27;20050;-81
2023/10/11 15:29:22;;;;;;;15.93;9.05;;;;;;;;;;5156870;27;20103;-80
2023/10/11 15:31:49;;;;;;;16.17;9.25;;;;;;;;;;5156025;27;20047;-79
2023/10/11 15:34:18;;;;;;;17.92;9.50;;;;;;;;;;5155362;27;20038;-79